sensor_id;sensor_type;location;lat;lon;timestamp;pressure;altitude;pressure_sealevel;temperature;humidity
42067;BME280;27734;47.028;28.820;2023-02-11T00:01:52;102347.27;;;-4.94;54.99
42067;BME280;27734;47.028;28.820;2023-02-11T00:04:23;102354.00;;;-4.94;55.56
42067;BME280;27734;47.028;28.820;2023-02-11T00:06:54;102350.34;;;-4.96;55.06
42067;BME280;27734;47.028;28.820;2023-02-11T00:09:25;102351.25;;;-4.96;54.70
42067;BME280;27734;47.028;28.820;2023-02-11T00:11:56;102349.44;;;-4.97;54.23
42067;BME280;27734;47.028;28.820;2023-02-11T00:14:28;102345.74;;;-4.99;54.87
42067;BME280;27734;47.028;28.820;2023-02-11T00:16:59;102342.47;;;-4.98;54.96
42067;BME280;27734;47.028;28.820;2023-02-11T00:19:30;102342.98;;;-5.00;54.99
42067;BME280;27734;47.028;28.820;2023-02-11T00:22:01;102344.64;;;-5.01;54.90
42067;BME280;27734;47.028;28.820;2023-02-11T00:24:33;102344.64;;;-5.01;54.96
42067;BME280;27734;47.028;28.820;2023-02-11T00:27:05;102335.11;;;-5.02;55.27
42067;BME280;27734;47.028;28.820;2023-02-11T00:29:37;102332.35;;;-5.03;55.13
42067;BME280;27734;47.028;28.820;2023-02-11T00:32:08;102331.45;;;-5.04;54.97
42067;BME280;27734;47.028;28.820;2023-02-11T00:34:40;102326.84;;;-5.07;55.14
42067;BME280;27734;47.028;28.820;2023-02-11T00:37:11;102328.50;;;-5.07;55.08
42067;BME280;27734;47.028;28.820;2023-02-11T00:39:44;102319.91;;;-5.08;55.09
42067;BME280;27734;47.028;28.820;2023-02-11T00:42:16;102318.06;;;-5.09;54.87
42067;BME280;27734;47.028;28.820;2023-02-11T00:44:48;102320.81;;;-5.07;55.08
42067;BME280;27734;47.028;28.820;2023-02-11T00:47:19;102309.67;;;-5.08;55.31
42067;BME280;27734;47.028;28.820;2023-02-11T00:49:51;102302.90;;;-5.07;55.25
42067;BME280;27734;47.028;28.820;2023-02-11T00:52:22;102305.45;;;-5.07;55.14
42067;BME280;27734;47.028;28.820;2023-02-11T00:54:53;102307.11;;;-5.08;55.32
42067;BME280;27734;47.028;28.820;2023-02-11T00:57:25;102303.80;;;-5.07;55.40
42067;BME280;27734;47.028;28.820;2023-02-11T00:59:56;102307.30;;;-5.06;55.26
42067;BME280;27734;47.028;28.820;2023-02-11T01:02:27;102308.92;;;-5.07;55.28
42067;BME280;27734;47.028;28.820;2023-02-11T01:04:59;102297.97;;;-5.06;55.29
42067;BME280;27734;47.028;28.820;2023-02-11T01:07:30;102298.88;;;-5.05;55.29
42067;BME280;27734;47.028;28.820;2023-02-11T01:10:02;102293.23;;;-5.02;55.40
42067;BME280;27734;47.028;28.820;2023-02-11T01:12:33;102296.90;;;-5.00;54.78
42067;BME280;27734;47.028;28.820;2023-02-11T01:15:08;102288.70;;;-4.98;55.51
42067;BME280;27734;47.028;28.820;2023-02-11T01:17:39;102285.62;;;-4.95;55.47
42067;BME280;27734;47.028;28.820;2023-02-11T01:20:15;102287.81;;;-4.91;55.57
42067;BME280;27734;47.028;28.820;2023-02-11T01:22:46;102284.02;;;-4.88;55.52
42067;BME280;27734;47.028;28.820;2023-02-11T01:25:18;102283.66;;;-4.83;55.59
42067;BME280;27734;47.028;28.820;2023-02-11T01:27:50;102276.75;;;-4.77;55.54
42067;BME280;27734;47.028;28.820;2023-02-11T01:30:21;102286.10;;;-4.71;55.85
42067;BME280;27734;47.028;28.820;2023-02-11T01:32:53;102281.03;;;-4.63;55.56
42067;BME280;27734;47.028;28.820;2023-02-11T01:35:25;102277.58;;;-4.57;55.87
42067;BME280;27734;47.028;28.820;2023-02-11T01:37:56;102267.19;;;-4.51;55.37
42067;BME280;27734;47.028;28.820;2023-02-11T01:40:27;102274.53;;;-4.47;55.40
42067;BME280;27734;47.028;28.820;2023-02-11T01:42:59;102273.07;;;-4.45;55.93
42067;BME280;27734;47.028;28.820;2023-02-11T01:45:56;102266.29;;;-4.44;55.75
42067;BME280;27734;47.028;28.820;2023-02-11T01:48:31;102259.54;;;-4.44;55.50
42067;BME280;27734;47.028;28.820;2023-02-11T01:51:08;102251.85;;;-4.44;56.24
42067;BME280;27734;47.028;28.820;2023-02-11T01:53:41;102252.19;;;-4.48;56.17
42067;BME280;27734;47.028;28.820;2023-02-11T01:56:31;102264.09;;;-4.48;56.04
42067;BME280;27734;47.028;28.820;2023-02-11T01:59:26;102260.41;;;-4.51;56.16
42067;BME280;27734;47.028;28.820;2023-02-11T02:02:01;102256.94;;;-4.51;56.00
42067;BME280;27734;47.028;28.820;2023-02-11T02:04:40;102265.90;;;-4.55;55.69
42067;BME280;27734;47.028;28.820;2023-02-11T02:07:24;102265.15;;;-4.54;56.43
42067;BME280;27734;47.028;28.820;2023-02-11T02:10:06;102264.43;;;-4.53;55.90
42067;BME280;27734;47.028;28.820;2023-02-11T02:12:39;102262.39;;;-4.55;56.30
42067;BME280;27734;47.028;28.820;2023-02-11T02:15:25;102268.46;;;-4.55;55.97
42067;BME280;27734;47.028;28.820;2023-02-11T02:18:10;102265.90;;;-4.55;56.35
42067;BME280;27734;47.028;28.820;2023-02-11T02:24:19;102258.36;;;-4.60;56.11
42067;BME280;27734;47.028;28.820;2023-02-11T02:33:22;102258.69;;;-4.64;56.24
42067;BME280;27734;47.028;28.820;2023-02-11T02:36:01;102263.09;;;-4.63;56.18
42067;BME280;27734;47.028;28.820;2023-02-11T02:38:39;102257.78;;;-4.65;56.22
42067;BME280;27734;47.028;28.820;2023-02-11T02:41:17;102260.68;;;-4.69;56.23
42067;BME280;27734;47.028;28.820;2023-02-11T02:43:50;102261.95;;;-4.73;56.43
42067;BME280;27734;47.028;28.820;2023-02-11T02:46:25;102257.91;;;-4.78;56.27
42067;BME280;27734;47.028;28.820;2023-02-11T02:48:57;102258.99;;;-4.83;55.84
42067;BME280;27734;47.028;28.820;2023-02-11T02:55:13;102259.45;;;-4.93;56.42
42067;BME280;27734;47.028;28.820;2023-02-11T03:00:42;102272.75;;;-5.02;56.16
42067;BME280;27734;47.028;28.820;2023-02-11T03:03:33;102270.00;;;-5.04;56.30
42067;BME280;27734;47.028;28.820;2023-02-11T03:06:13;102273.66;;;-5.02;56.12
42067;BME280;27734;47.028;28.820;2023-02-11T03:08:53;102271.30;;;-5.00;56.34
42067;BME280;27734;47.028;28.820;2023-02-11T03:11:26;102268.55;;;-5.02;56.42
42067;BME280;27734;47.028;28.820;2023-02-11T03:14:02;102261.61;;;-5.03;57.10
42067;BME280;27734;47.028;28.820;2023-02-11T03:16:35;102261.22;;;-5.06;56.57
42067;BME280;27734;47.028;28.820;2023-02-11T03:19:18;102263.20;;;-5.11;56.35
42067;BME280;27734;47.028;28.820;2023-02-11T03:21:52;102269.03;;;-5.12;56.35
42067;BME280;27734;47.028;28.820;2023-02-11T03:24:27;102268.84;;;-5.13;56.53
42067;BME280;27734;47.028;28.820;2023-02-11T03:27:02;102270.88;;;-5.11;56.46
42067;BME280;27734;47.028;28.820;2023-02-11T03:29:40;102265.41;;;-5.07;56.55
42067;BME280;27734;47.028;28.820;2023-02-11T03:32:16;102259.24;;;-5.01;56.95
42067;BME280;27734;47.028;28.820;2023-02-11T03:34:52;102257.27;;;-4.97;56.76
42067;BME280;27734;47.028;28.820;2023-02-11T03:37:28;102253.10;;;-4.89;56.76
42067;BME280;27734;47.028;28.820;2023-02-11T03:40:04;102247.28;;;-4.81;56.66
42067;BME280;27734;47.028;28.820;2023-02-11T03:42:39;102244.02;;;-4.73;56.80
42067;BME280;27734;47.028;28.820;2023-02-11T03:45:15;102242.41;;;-4.65;56.79
42067;BME280;27734;47.028;28.820;2023-02-11T03:47:49;102233.30;;;-4.56;56.88
42067;BME280;27734;47.028;28.820;2023-02-11T03:50:24;102239.19;;;-4.49;57.43
42067;BME280;27734;47.028;28.820;2023-02-11T03:52:57;102225.84;;;-4.47;56.96
42067;BME280;27734;47.028;28.820;2023-02-11T03:55:30;102230.78;;;-4.41;56.79
42067;BME280;27734;47.028;28.820;2023-02-11T03:58:03;102231.91;;;-4.39;57.02
42067;BME280;27734;47.028;28.820;2023-02-11T04:00:37;102241.60;;;-4.37;56.93
42067;BME280;27734;47.028;28.820;2023-02-11T04:03:10;102237.57;;;-4.42;56.92
42067;BME280;27734;47.028;28.820;2023-02-11T04:05:42;102235.34;;;-4.46;56.97
42067;BME280;27734;47.028;28.820;2023-02-11T04:08:29;102237.16;;;-4.52;56.91
42067;BME280;27734;47.028;28.820;2023-02-11T04:11:01;102239.33;;;-4.55;57.13
42067;BME280;27734;47.028;28.820;2023-02-11T04:13:32;102236.20;;;-4.60;56.96
42067;BME280;27734;47.028;28.820;2023-02-11T04:16:04;102232.02;;;-4.59;57.21
42067;BME280;27734;47.028;28.820;2023-02-11T04:18:35;102232.73;;;-4.60;57.11
42067;BME280;27734;47.028;28.820;2023-02-11T04:21:06;102238.77;;;-4.60;57.21
42067;BME280;27734;47.028;28.820;2023-02-11T04:23:38;102235.30;;;-4.60;57.05
42067;BME280;27734;47.028;28.820;2023-02-11T04:26:09;102226.52;;;-4.62;56.98
42067;BME280;27734;47.028;28.820;2023-02-11T04:28:40;102229.80;;;-4.63;57.24
42067;BME280;27734;47.028;28.820;2023-02-11T04:31:11;102231.64;;;-4.62;57.63
42067;BME280;27734;47.028;28.820;2023-02-11T04:33:43;102231.26;;;-4.65;57.34
42067;BME280;27734;47.028;28.820;2023-02-11T04:36:14;102215.52;;;-4.68;57.42
42067;BME280;27734;47.028;28.820;2023-02-11T04:38:45;102218.59;;;-4.71;57.62
42067;BME280;27734;47.028;28.820;2023-02-11T04:41:17;102216.56;;;-4.74;57.45
42067;BME280;27734;47.028;28.820;2023-02-11T04:43:48;102225.38;;;-4.72;57.52
42067;BME280;27734;47.028;28.820;2023-02-11T04:46:19;102225.38;;;-4.72;57.89
42067;BME280;27734;47.028;28.820;2023-02-11T04:48:50;102209.06;;;-4.72;57.56
42067;BME280;27734;47.028;28.820;2023-02-11T04:51:22;102211.30;;;-4.68;57.75
42067;BME280;27734;47.028;28.820;2023-02-11T04:53:53;102211.14;;;-4.62;57.50
42067;BME280;27734;47.028;28.820;2023-02-11T04:56:24;102206.59;;;-4.58;57.42
42067;BME280;27734;47.028;28.820;2023-02-11T04:58:55;102194.88;;;-4.56;57.75
42067;BME280;27734;47.028;28.820;2023-02-11T05:01:26;102195.44;;;-4.51;57.36
42067;BME280;27734;47.028;28.820;2023-02-11T05:03:58;102187.41;;;-4.47;57.54
42067;BME280;27734;47.028;28.820;2023-02-11T05:06:29;102187.03;;;-4.43;57.68
42067;BME280;27734;47.028;28.820;2023-02-11T05:09:00;102189.06;;;-4.40;57.39
42067;BME280;27734;47.028;28.820;2023-02-11T05:11:32;102197.84;;;-4.38;57.35
42067;BME280;27734;47.028;28.820;2023-02-11T05:14:03;102192.72;;;-4.38;57.76
42067;BME280;27734;47.028;28.820;2023-02-11T05:16:35;102190.91;;;-4.39;57.81
42067;BME280;27734;47.028;28.820;2023-02-11T05:19:06;102192.72;;;-4.38;57.73
42067;BME280;27734;47.028;28.820;2023-02-11T05:21:37;102187.97;;;-4.35;57.72
42067;BME280;27734;47.028;28.820;2023-02-11T05:24:09;102192.56;;;-4.32;58.01
42067;BME280;27734;47.028;28.820;2023-02-11T05:26:40;102192.41;;;-4.27;58.07
42067;BME280;27734;47.028;28.820;2023-02-11T05:29:11;102182.15;;;-4.20;57.95
42067;BME280;27734;47.028;28.820;2023-02-11T05:31:43;102183.80;;;-4.13;57.62
42067;BME280;27734;47.028;28.820;2023-02-11T05:34:14;102190.42;;;-4.08;58.06
42067;BME280;27734;47.028;28.820;2023-02-11T05:36:45;102181.44;;;-4.04;57.79
42067;BME280;27734;47.028;28.820;2023-02-11T05:39:16;102186.94;;;-4.01;58.34
42067;BME280;27734;47.028;28.820;2023-02-11T05:41:47;102175.20;;;-3.99;57.54
42067;BME280;27734;47.028;28.820;2023-02-11T05:44:19;102182.55;;;-3.95;57.96
42067;BME280;27734;47.028;28.820;2023-02-11T05:46:50;102182.92;;;-3.92;58.23
42067;BME280;27734;47.028;28.820;2023-02-11T05:49:21;102180.91;;;-3.87;57.65
42067;BME280;27734;47.028;28.820;2023-02-11T05:51:52;102185.87;;;-3.82;58.01
42067;BME280;27734;47.028;28.820;2023-02-11T05:54:24;102182.92;;;-3.77;58.28
42067;BME280;27734;47.028;28.820;2023-02-11T05:56:55;102179.09;;;-3.74;57.53
42067;BME280;27734;47.028;28.820;2023-02-11T05:59:26;102181.27;;;-3.70;58.21
42067;BME280;27734;47.028;28.820;2023-02-11T06:01:58;102182.72;;;-3.65;58.46
42067;BME280;27734;47.028;28.820;2023-02-11T06:04:29;102180.89;;;-3.58;58.32
42067;BME280;27734;47.028;28.820;2023-02-11T06:07:00;102177.24;;;-3.53;58.20
42067;BME280;27734;47.028;28.820;2023-02-11T06:09:32;102173.38;;;-3.42;57.83
42067;BME280;27734;47.028;28.820;2023-02-11T06:12:03;102178.66;;;-3.34;58.10
42067;BME280;27734;47.028;28.820;2023-02-11T06:14:34;102172.80;;;-3.26;58.16
42067;BME280;27734;47.028;28.820;2023-02-11T06:17:06;102172.04;;;-3.17;58.03
42067;BME280;27734;47.028;28.820;2023-02-11T06:19:37;102166.50;;;-3.06;58.85
42067;BME280;27734;47.028;28.820;2023-02-11T06:22:08;102161.34;;;-2.99;58.23
42067;BME280;27734;47.028;28.820;2023-02-11T06:24:40;102156.56;;;-2.96;58.47
42067;BME280;27734;47.028;28.820;2023-02-11T06:27:13;102154.70;;;-2.90;58.69
42067;BME280;27734;47.028;28.820;2023-02-11T06:29:44;102162.02;;;-2.85;58.27
42067;BME280;27734;47.028;28.820;2023-02-11T06:32:15;102159.80;;;-2.82;58.74
42067;BME280;27734;47.028;28.820;2023-02-11T06:34:47;102166.41;;;-2.77;59.01
42067;BME280;27734;47.028;28.820;2023-02-11T06:37:18;102166.00;;;-2.73;58.93
42067;BME280;27734;47.028;28.820;2023-02-11T06:39:50;102172.97;;;-2.65;58.71
42067;BME280;27734;47.028;28.820;2023-02-11T06:42:21;102160.05;;;-2.58;58.93
42067;BME280;27734;47.028;28.820;2023-02-11T06:44:52;102158.36;;;-2.50;58.03
42067;BME280;27734;47.028;28.820;2023-02-11T06:47:23;102162.54;;;-2.43;59.07
42067;BME280;27734;47.028;28.820;2023-02-11T06:49:54;102157.37;;;-2.36;57.90
42067;BME280;27734;47.028;28.820;2023-02-11T06:52:26;102163.56;;;-2.27;58.83
42067;BME280;27734;47.028;28.820;2023-02-11T06:54:57;102157.62;;;-2.19;57.99
42067;BME280;27734;47.028;28.820;2023-02-11T06:57:28;102154.10;;;-2.12;57.42
42067;BME280;27734;47.028;28.820;2023-02-11T07:00:00;102147.04;;;-2.06;58.73
42067;BME280;27734;47.028;28.820;2023-02-11T07:02:31;102146.09;;;-1.99;58.17
42067;BME280;27734;47.028;28.820;2023-02-11T07:05:03;102146.02;;;-1.92;57.80
42067;BME280;27734;47.028;28.820;2023-02-11T07:07:35;102141.17;;;-1.82;57.44
42067;BME280;27734;47.028;28.820;2023-02-11T07:10:07;102147.34;;;-1.72;57.78
42067;BME280;27734;47.028;28.820;2023-02-11T07:12:38;102137.33;;;-1.62;58.48
42067;BME280;27734;47.028;28.820;2023-02-11T07:15:10;102128.78;;;-1.54;58.64
42067;BME280;27734;47.028;28.820;2023-02-11T07:17:41;102126.11;;;-1.47;58.10
42067;BME280;27734;47.028;28.820;2023-02-11T07:20:13;102124.98;;;-1.41;58.39
42067;BME280;27734;47.028;28.820;2023-02-11T07:22:44;102129.13;;;-1.35;57.97
42067;BME280;27734;47.028;28.820;2023-02-11T07:25:16;102127.39;;;-1.27;58.71
42067;BME280;27734;47.028;28.820;2023-02-11T07:27:47;102123.08;;;-1.19;58.56
42067;BME280;27734;47.028;28.820;2023-02-11T07:30:19;102129.97;;;-1.11;58.51
42067;BME280;27734;47.028;28.820;2023-02-11T07:32:50;102129.73;;;-1.05;57.84
42067;BME280;27734;47.028;28.820;2023-02-11T07:35:21;102125.97;;;-1.00;57.59
42067;BME280;27734;47.028;28.820;2023-02-11T07:37:52;102124.80;;;-0.95;58.13
42067;BME280;27734;47.028;28.820;2023-02-11T07:40:24;102121.41;;;-0.87;58.37
42067;BME280;27734;47.028;28.820;2023-02-11T07:42:55;102124.97;;;-0.78;57.85
42067;BME280;27734;47.028;28.820;2023-02-11T07:45:26;102125.02;;;-0.69;57.62
42067;BME280;27734;47.028;28.820;2023-02-11T07:47:57;102119.94;;;-0.60;58.33
42067;BME280;27734;47.028;28.820;2023-02-11T07:50:29;102126.81;;;-0.52;57.98
42067;BME280;27734;47.028;28.820;2023-02-11T07:53:00;102123.37;;;-0.44;58.08
42067;BME280;27734;47.028;28.820;2023-02-11T07:55:33;102120.86;;;-0.35;57.79
42067;BME280;27734;47.028;28.820;2023-02-11T07:58:04;102126.98;;;-0.26;57.84
42067;BME280;27734;47.028;28.820;2023-02-11T08:00:35;102113.05;;;-0.19;58.17
42067;BME280;27734;47.028;28.820;2023-02-11T08:03:07;102111.89;;;-0.14;57.63
42067;BME280;27734;47.028;28.820;2023-02-11T08:05:39;102108.37;;;-0.14;57.98
42067;BME280;27734;47.028;28.820;2023-02-11T08:08:11;102105.38;;;-0.10;57.60
42067;BME280;27734;47.028;28.820;2023-02-11T08:10:42;102106.48;;;0.01;57.98
42067;BME280;27734;47.028;28.820;2023-02-11T08:13:13;102098.17;;;0.12;57.51
42067;BME280;27734;47.028;28.820;2023-02-11T08:15:44;102093.64;;;0.18;57.52
42067;BME280;27734;47.028;28.820;2023-02-11T08:18:16;102091.85;;;0.26;58.18
42067;BME280;27734;47.028;28.820;2023-02-11T08:20:47;102085.95;;;0.35;58.21
42067;BME280;27734;47.028;28.820;2023-02-11T08:23:18;102084.61;;;0.48;57.98
42067;BME280;27734;47.028;28.820;2023-02-11T08:25:49;102072.19;;;0.61;58.05
42067;BME280;27734;47.028;28.820;2023-02-11T08:28:20;102066.58;;;0.74;57.63
42067;BME280;27734;47.028;28.820;2023-02-11T08:30:52;102059.45;;;0.89;58.16
42067;BME280;27734;47.028;28.820;2023-02-11T08:33:23;102056.70;;;1.05;57.95
42067;BME280;27734;47.028;28.820;2023-02-11T08:35:54;102053.64;;;1.18;57.93
42067;BME280;27734;47.028;28.820;2023-02-11T08:38:26;102050.72;;;1.32;58.20
42067;BME280;27734;47.028;28.820;2023-02-11T08:40:59;102045.54;;;1.50;57.83
42067;BME280;27734;47.028;28.820;2023-02-11T08:43:31;102032.25;;;1.64;58.17
42067;BME280;27734;47.028;28.820;2023-02-11T08:46:03;102021.23;;;1.75;57.63
42067;BME280;27734;47.028;28.820;2023-02-11T08:48:35;102021.65;;;1.89;58.22
42067;BME280;27734;47.028;28.820;2023-02-11T08:51:09;102020.37;;;2.03;58.03
42067;BME280;27734;47.028;28.820;2023-02-11T08:53:40;102023.14;;;2.23;58.17
42067;BME280;27734;47.028;28.820;2023-02-11T08:56:13;102016.16;;;2.41;58.48
42067;BME280;27734;47.028;28.820;2023-02-11T08:58:45;102011.91;;;2.61;57.86
42067;BME280;27734;47.028;28.820;2023-02-11T09:01:18;102001.39;;;2.78;57.90
42067;BME280;27734;47.028;28.820;2023-02-11T09:03:50;101997.88;;;2.97;57.81
42067;BME280;27734;47.028;28.820;2023-02-11T09:06:23;101987.98;;;3.12;58.44
42067;BME280;27734;47.028;28.820;2023-02-11T09:08:56;101991.23;;;3.19;58.61
42067;BME280;27734;47.028;28.820;2023-02-11T09:11:29;101983.23;;;3.27;58.44
42067;BME280;27734;47.028;28.820;2023-02-11T09:14:00;101975.37;;;3.35;57.00
42067;BME280;27734;47.028;28.820;2023-02-11T09:16:34;101969.02;;;3.42;58.12
42067;BME280;27734;47.028;28.820;2023-02-11T09:19:06;101970.45;;;3.49;57.95
42067;BME280;27734;47.028;28.820;2023-02-11T09:21:37;101964.81;;;3.63;58.05
42067;BME280;27734;47.028;28.820;2023-02-11T09:24:08;101964.31;;;3.77;57.94
42067;BME280;27734;47.028;28.820;2023-02-11T09:26:41;101957.72;;;3.91;57.96
42067;BME280;27734;47.028;28.820;2023-02-11T09:29:13;101949.27;;;4.04;57.79
42067;BME280;27734;47.028;28.820;2023-02-11T09:31:44;101949.55;;;4.18;57.97
42067;BME280;27734;47.028;28.820;2023-02-11T09:34:15;101952.89;;;4.27;57.50
42067;BME280;27734;47.028;28.820;2023-02-11T09:36:47;101946.67;;;4.35;57.24
42067;BME280;27734;47.028;28.820;2023-02-11T09:39:18;101933.64;;;4.45;57.92
42067;BME280;27734;47.028;28.820;2023-02-11T09:42:07;101941.31;;;4.54;56.94
42067;BME280;27734;47.028;28.820;2023-02-11T09:44:40;101935.34;;;4.55;57.27
42067;BME280;27734;47.028;28.820;2023-02-11T09:47:23;101926.98;;;4.59;57.12
42067;BME280;27734;47.028;28.820;2023-02-11T09:49:59;101916.20;;;4.65;56.82
42067;BME280;27734;47.028;28.820;2023-02-11T09:52:38;101917.34;;;4.68;56.74
42067;BME280;27734;47.028;28.820;2023-02-11T09:55:18;101900.98;;;4.70;56.73
42067;BME280;27734;47.028;28.820;2023-02-11T09:57:51;101897.48;;;4.69;56.90
42067;BME280;27734;47.028;28.820;2023-02-11T10:00:26;101897.05;;;4.75;56.80
42067;BME280;27734;47.028;28.820;2023-02-11T10:03:43;101891.58;;;4.82;56.33
42067;BME280;27734;47.028;28.820;2023-02-11T10:06:41;101890.89;;;4.84;56.47
42067;BME280;27734;47.028;28.820;2023-02-11T10:09:23;101875.25;;;4.95;56.66
42067;BME280;27734;47.028;28.820;2023-02-11T10:12:08;101873.92;;;5.00;56.31
42067;BME280;27734;47.028;28.820;2023-02-11T10:17:50;101863.39;;;4.98;56.20
42067;BME280;27734;47.028;28.820;2023-02-11T10:20:32;101861.28;;;5.04;55.91
42067;BME280;27734;47.028;28.820;2023-02-11T10:23:12;101862.58;;;5.10;55.21
42067;BME280;27734;47.028;28.820;2023-02-11T10:25:47;101847.58;;;5.17;55.85
42067;BME280;27734;47.028;28.820;2023-02-11T10:28:25;101844.77;;;5.26;56.24
42067;BME280;27734;47.028;28.820;2023-02-11T10:31:01;101830.64;;;5.34;56.18
42067;BME280;27734;47.028;28.820;2023-02-11T10:33:38;101826.63;;;5.50;56.20
42067;BME280;27734;47.028;28.820;2023-02-11T10:36:12;101827.34;;;5.59;55.41
42067;BME280;27734;47.028;28.820;2023-02-11T10:38:44;101811.65;;;5.69;55.91
42067;BME280;27734;47.028;28.820;2023-02-11T10:41:19;101813.59;;;5.84;54.97
42067;BME280;27734;47.028;28.820;2023-02-11T10:43:51;101802.05;;;5.92;54.60
42067;BME280;27734;47.028;28.820;2023-02-11T10:46:25;101804.37;;;5.99;55.23
42067;BME280;27734;47.028;28.820;2023-02-11T10:48:59;101798.48;;;6.14;55.12
42067;BME280;27734;47.028;28.820;2023-02-11T10:51:33;101799.75;;;6.19;55.46
42067;BME280;27734;47.028;28.820;2023-02-11T10:54:18;101794.88;;;6.23;54.61
42067;BME280;27734;47.028;28.820;2023-02-11T10:56:57;101785.23;;;6.22;54.51
42067;BME280;27734;47.028;28.820;2023-02-11T10:59:32;101786.61;;;6.17;54.36
42067;BME280;27734;47.028;28.820;2023-02-11T11:02:22;101785.22;;;6.10;54.42
42067;BME280;27734;47.028;28.820;2023-02-11T11:04:56;101784.64;;;6.03;53.73
42067;BME280;27734;47.028;28.820;2023-02-11T11:07:30;101780.42;;;5.93;54.52
42067;BME280;27734;47.028;28.820;2023-02-11T11:10:04;101771.37;;;5.88;54.03
42067;BME280;27734;47.028;28.820;2023-02-11T11:12:48;101778.95;;;5.85;54.27
42067;BME280;27734;47.028;28.820;2023-02-11T11:15:22;101763.75;;;5.79;54.16
42067;BME280;27734;47.028;28.820;2023-02-11T11:18:13;101769.43;;;5.73;53.92
42067;BME280;27734;47.028;28.820;2023-02-11T11:20:56;101766.71;;;5.72;54.19
42067;BME280;27734;47.028;28.820;2023-02-11T11:23:29;101761.39;;;5.70;53.75
42067;BME280;27734;47.028;28.820;2023-02-11T11:26:04;101755.13;;;5.68;54.12
42067;BME280;27734;47.028;28.820;2023-02-11T11:28:40;101752.06;;;5.62;53.76
42067;BME280;27734;47.028;28.820;2023-02-11T11:31:18;101749.00;;;5.56;53.63
42067;BME280;27734;47.028;28.820;2023-02-11T11:33:52;101738.11;;;5.50;53.40
42067;BME280;27734;47.028;28.820;2023-02-11T11:36:32;101728.16;;;5.44;52.91
42067;BME280;27734;47.028;28.820;2023-02-11T11:39:18;101740.02;;;5.40;53.81
42067;BME280;27734;47.028;28.820;2023-02-11T11:41:58;101731.31;;;5.40;53.62
42067;BME280;27734;47.028;28.820;2023-02-11T11:44:33;101732.32;;;5.42;53.28
42067;BME280;27734;47.028;28.820;2023-02-11T11:47:24;101724.52;;;5.42;53.27
42067;BME280;27734;47.028;28.820;2023-02-11T11:50:26;101731.19;;;5.38;53.08
42067;BME280;27734;47.028;28.820;2023-02-11T11:53:06;101725.28;;;5.29;53.53
42067;BME280;27734;47.028;28.820;2023-02-11T11:55:46;101720.19;;;5.19;53.17
42067;BME280;27734;47.028;28.820;2023-02-11T11:58:21;101716.75;;;5.08;53.57
42067;BME280;27734;47.028;28.820;2023-02-11T12:00:58;101720.08;;;4.95;52.78
42067;BME280;27734;47.028;28.820;2023-02-11T12:03:57;101714.72;;;4.82;52.58
42067;BME280;27734;47.028;28.820;2023-02-11T12:06:42;101701.41;;;4.67;52.32
42067;BME280;27734;47.028;28.820;2023-02-11T12:09:22;101704.22;;;4.58;52.21
42067;BME280;27734;47.028;28.820;2023-02-11T12:12:10;101698.53;;;4.52;52.33
42067;BME280;27734;47.028;28.820;2023-02-11T12:14:52;101688.42;;;4.45;52.29
42067;BME280;27734;47.028;28.820;2023-02-11T12:17:37;101681.96;;;4.40;52.68
42067;BME280;27734;47.028;28.820;2023-02-11T12:20:31;101687.41;;;4.43;52.90
42067;BME280;27734;47.028;28.820;2023-02-11T12:23:25;101679.48;;;4.41;52.59
42067;BME280;27734;47.028;28.820;2023-02-11T12:26:06;101659.34;;;4.39;52.55
42067;BME280;27734;47.028;28.820;2023-02-11T12:28:49;101658.33;;;4.37;52.78
42067;BME280;27734;47.028;28.820;2023-02-11T12:31:30;101654.92;;;4.38;52.58
42067;BME280;27734;47.028;28.820;2023-02-11T12:34:17;101648.95;;;4.39;52.39
42067;BME280;27734;47.028;28.820;2023-02-11T12:37:03;101649.97;;;4.41;52.52
42067;BME280;27734;47.028;28.820;2023-02-11T12:39:43;101652.56;;;4.41;52.38
42067;BME280;27734;47.028;28.820;2023-02-11T12:45:47;101640.14;;;4.37;51.68
42067;BME280;27734;47.028;28.820;2023-02-11T12:48:35;101628.69;;;4.35;51.49
42067;BME280;27734;47.028;28.820;2023-02-11T12:51:18;101619.11;;;4.34;51.69
42067;BME280;27734;47.028;28.820;2023-02-11T12:54:10;101614.14;;;4.37;51.49
42067;BME280;27734;47.028;28.820;2023-02-11T12:56:47;101599.57;;;4.39;51.64
42067;BME280;27734;47.028;28.820;2023-02-11T13:02:28;101598.47;;;4.47;51.18
42067;BME280;27734;47.028;28.820;2023-02-11T13:05:07;101595.33;;;4.51;51.00
42067;BME280;27734;47.028;28.820;2023-02-11T13:07:42;101600.77;;;4.54;50.70
42067;BME280;27734;47.028;28.820;2023-02-11T13:10:23;101592.19;;;4.55;50.50
42067;BME280;27734;47.028;28.820;2023-02-11T13:12:56;101592.08;;;4.54;50.76
42067;BME280;27734;47.028;28.820;2023-02-11T13:15:52;101590.79;;;4.48;50.87
42067;BME280;27734;47.028;28.820;2023-02-11T13:18:35;101588.88;;;4.46;50.43
42067;BME280;27734;47.028;28.820;2023-02-11T13:21:25;101589.17;;;4.39;50.05
42067;BME280;27734;47.028;28.820;2023-02-11T13:24:04;101598.97;;;4.31;49.56
42067;BME280;27734;47.028;28.820;2023-02-11T13:26:44;101591.34;;;4.22;50.65
42067;BME280;27734;47.028;28.820;2023-02-11T13:29:27;101589.97;;;4.16;50.44
42067;BME280;27734;47.028;28.820;2023-02-11T13:32:09;101592.20;;;4.11;50.87
42067;BME280;27734;47.028;28.820;2023-02-11T13:34:56;101589.23;;;4.06;50.23
42067;BME280;27734;47.028;28.820;2023-02-11T13:37:33;101573.41;;;4.03;50.32
42067;BME280;27734;47.028;28.820;2023-02-11T13:40:18;101575.89;;;4.02;50.28
42067;BME280;27734;47.028;28.820;2023-02-11T13:42:54;101579.29;;;4.01;50.07
42067;BME280;27734;47.028;28.820;2023-02-11T13:45:32;101567.85;;;3.99;50.42
42067;BME280;27734;47.028;28.820;2023-02-11T13:48:05;101559.94;;;3.97;50.54
42067;BME280;27734;47.028;28.820;2023-02-11T13:50:44;101566.84;;;3.96;50.42